createdAt,value
2019-01-05T00:01:11.288Z,83.90
2019-01-05T00:04:00.606Z,84.40
2019-01-05T00:06:53.207Z,84.90
2019-01-05T00:09:41.214Z,84.70
2019-01-05T00:12:31.366Z,85.00
2019-01-05T00:15:20.087Z,85.10
2019-01-05T00:18:23.086Z,85.00
2019-01-05T00:20:59.708Z,86.00
2019-01-05T00:23:49.693Z,86.60
2019-01-05T00:26:40.869Z,87.70
2019-01-05T00:29:39.908Z,87.30
2019-01-05T00:32:41.911Z,89.10
2019-01-05T00:35:57.741Z,87.40
2019-01-05T00:38:49.020Z,87.60
2019-01-05T00:41:38.176Z,87.30
2019-01-05T00:44:40.391Z,88.60
2019-01-05T00:47:30.186Z,89.00
2019-01-05T00:50:23.238Z,89.50
2019-01-05T00:53:27.943Z,89.50
2019-01-05T00:56:24.016Z,90.00
2019-01-05T00:59:13.383Z,90.10
2019-01-05T01:02:00.835Z,90.20
2019-01-05T01:05:04.458Z,90.30
2019-01-05T01:07:54.191Z,90.70
2019-01-05T01:10:42.401Z,91.20
2019-01-05T01:13:35.503Z,90.60
2019-01-05T01:16:34.025Z,90.20
2019-01-05T01:19:23.141Z,90.10
2019-01-05T01:22:11.182Z,90.10
2019-01-05T01:25:01.069Z,90.00
2019-01-05T01:27:59.815Z,90.00
2019-01-05T01:30:48.168Z,89.80
2019-01-05T01:33:40.216Z,90.00
2019-01-05T01:36:22.296Z,90.00
2019-01-05T01:39:41.568Z,90.10
2019-01-05T01:42:42.780Z,90.80
2019-01-05T01:45:36.886Z,90.90
2019-01-05T01:48:27.178Z,91.10
2019-01-05T01:51:14.949Z,91.10
2019-01-05T01:54:12.026Z,91.20
2019-01-05T01:57:10.988Z,91.30
2019-01-05T02:00:37.029Z,91.60
2019-01-05T02:03:28.846Z,92.10
2019-01-05T02:06:37.444Z,92.20
2019-01-05T02:09:43.713Z,92.50
2019-01-05T02:12:41.628Z,92.60
2019-01-05T02:15:35.166Z,92.70
2019-01-05T02:18:58.344Z,92.50
2019-01-05T02:23:06.491Z,91.90
2019-01-05T02:26:17.213Z,92.30
2019-01-05T02:30:39.473Z,92.30
2019-01-05T02:34:20.881Z,92.20
2019-01-05T02:37:54.109Z,92.90
2019-01-05T02:41:45.351Z,92.80
2019-01-05T02:45:40.697Z,93.00
2019-01-05T02:49:26.222Z,92.60
2019-01-05T02:53:26.039Z,92.40
2019-01-05T02:57:15.084Z,91.30
2019-01-05T03:01:19.045Z,92.00
2019-01-05T03:05:01.777Z,92.00
2019-01-05T03:08:45.376Z,93.10
2019-01-05T03:12:49.261Z,92.80
2019-01-05T03:16:49.016Z,93.10
2019-01-05T03:20:50.791Z,91.00
2019-01-05T03:24:43.650Z,87.60
2019-01-05T03:28:17.793Z,87.20
2019-01-05T03:32:18.011Z,88.90
2019-01-05T03:36:13.265Z,89.30
2019-01-05T03:44:19.544Z,90.40
2019-01-05T03:48:16.123Z,89.10
2019-01-05T03:52:02.690Z,87.20
2019-01-05T03:55:56.967Z,86.30
2019-01-05T03:59:47.501Z,86.40
2019-01-05T04:03:36.328Z,87.10
2019-01-05T04:07:46.689Z,87.20
2019-01-05T04:11:40.403Z,87.50
2019-01-05T04:15:37.485Z,87.80
2019-01-05T04:19:18.809Z,87.50
2019-01-05T04:23:33.890Z,86.30
2019-01-05T04:27:35.521Z,85.90
2019-01-05T04:31:25.161Z,87.10
2019-01-05T04:35:17.049Z,87.50
2019-01-05T04:39:03.653Z,86.60
2019-01-05T04:42:52.103Z,86.60
2019-01-05T04:46:29.630Z,87.20
2019-01-05T04:50:00.221Z,87.80
2019-01-05T04:54:02.330Z,87.80
2019-01-05T04:57:47.835Z,88.20
2019-01-05T05:01:40.021Z,87.90
2019-01-05T05:05:27.072Z,86.30
2019-01-05T05:09:30.772Z,85.70
2019-01-05T05:13:46.424Z,86.70
2019-01-05T05:17:29.113Z,87.00
2019-01-05T05:21:18.607Z,87.20
2019-01-05T05:25:28.648Z,86.00
2019-01-05T05:29:22.513Z,86.30
2019-01-05T05:33:48.333Z,86.10
2019-01-05T05:37:37.913Z,86.10
2019-01-05T05:41:19.526Z,85.30
2019-01-05T05:45:01.065Z,86.40
2019-01-05T05:49:02.801Z,86.60
2019-01-05T05:53:12.560Z,87.20
2019-01-05T05:56:55.541Z,86.90
2019-01-05T06:00:48.353Z,85.40
2019-01-05T06:04:34.823Z,86.30
2019-01-05T06:08:36.213Z,86.80
2019-01-05T06:12:30.335Z,87.30
2019-01-05T06:16:49.237Z,87.20
2019-01-05T06:20:39.299Z,86.90
2019-01-05T06:24:29.721Z,87.30
2019-01-05T06:28:18.236Z,87.50
2019-01-05T06:32:16.669Z,87.70
2019-01-05T06:36:25.746Z,87.90
2019-01-05T06:40:25.281Z,87.10
2019-01-05T06:44:19.810Z,87.60
2019-01-05T06:47:58.811Z,87.40
2019-01-05T06:51:41.902Z,87.30
2019-01-05T06:55:51.073Z,87.40
2019-01-05T07:00:01.748Z,87.70
2019-01-05T07:03:35.928Z,87.40
2019-01-05T07:07:21.859Z,88.30
2019-01-05T07:10:57.217Z,89.20
2019-01-05T07:14:31.234Z,90.20
2019-01-05T07:18:11.495Z,89.50
2019-01-05T07:22:25.194Z,89.00
2019-01-05T07:26:02.321Z,85.90
2019-01-05T07:29:42.920Z,86.00
2019-01-05T07:33:25.791Z,85.00
2019-01-05T07:37:10.166Z,84.10
2019-01-05T07:41:22.409Z,80.10
2019-01-05T07:45:10.570Z,77.50
2019-01-05T07:49:06.118Z,76.50
2019-01-05T07:53:07.469Z,74.50
2019-01-05T07:57:14.337Z,75.70
2019-01-05T08:01:45.497Z,72.30
2019-01-05T08:05:49.493Z,69.80
2019-01-05T08:10:29.237Z,61.70
2019-01-05T08:14:01.057Z,60.10
2019-01-05T08:18:19.835Z,59.10
2019-01-05T08:22:13.456Z,56.60
2019-01-05T08:26:00.357Z,57.00
2019-01-05T08:30:41.626Z,53.90
2019-01-05T08:34:32.676Z,53.80
2019-01-05T08:38:19.690Z,54.50
2019-01-05T08:41:59.596Z,54.10
2019-01-05T08:45:47.799Z,51.80
2019-01-05T08:49:40.856Z,49.40
2019-01-05T08:53:26.286Z,46.10
2019-01-05T08:57:17.873Z,46.30
2019-01-05T09:01:14.007Z,46.10
2019-01-05T09:05:16.137Z,46.50
2019-01-05T09:09:14.418Z,43.80
2019-01-05T09:13:04.137Z,39.20
2019-01-05T09:16:46.150Z,40.30
2019-01-05T09:20:35.278Z,39.40
2019-01-05T09:24:15.191Z,38.20
2019-01-05T09:28:21.531Z,38.50
2019-01-05T09:32:11.466Z,39.70
2019-01-05T09:35:54.684Z,39.60
2019-01-05T09:39:41.075Z,36.70
2019-01-05T09:43:55.229Z,36.10
2019-01-05T09:48:15.114Z,35.50
2019-01-05T09:52:24.221Z,35.50
2019-01-05T09:56:08.398Z,34.90
2019-01-05T09:59:59.215Z,35.30
2019-01-05T10:04:23.748Z,35.10
2019-01-05T10:08:33.297Z,34.00
2019-01-05T10:12:29.685Z,33.00
2019-01-05T10:16:06.424Z,32.00
2019-01-05T10:19:50.469Z,31.60
2019-01-05T10:23:59.286Z,30.80
2019-01-05T10:27:33.502Z,31.20
2019-01-05T10:31:31.146Z,29.60
2019-01-05T10:35:17.707Z,29.70
2019-01-05T10:39:07.944Z,30.70
2019-01-05T10:42:59.011Z,30.20
2019-01-05T10:46:59.692Z,29.50
2019-01-05T10:51:24.810Z,27.60
2019-01-05T10:55:33.091Z,25.30
2019-01-05T10:59:25.673Z,25.40
2019-01-05T11:03:12.201Z,25.80
2019-01-05T11:07:24.877Z,26.50
2019-01-05T11:11:33.900Z,27.10
2019-01-05T11:15:19.746Z,26.50
2019-01-05T11:19:24.194Z,27.80
2019-01-05T11:23:05.225Z,31.10
2019-01-05T11:26:49.361Z,30.20
2019-01-05T11:30:47.818Z,31.40
2019-01-05T11:34:49.367Z,32.60
2019-01-05T11:38:48.734Z,33.40
2019-01-05T11:42:32.770Z,31.30
2019-01-05T11:46:05.394Z,33.10
2019-01-05T11:50:07.423Z,33.50
2019-01-05T11:53:54.656Z,33.60
2019-01-05T11:57:55.506Z,33.50
2019-01-05T12:02:32.937Z,32.70
2019-01-05T12:06:13.311Z,31.90
2019-01-05T12:09:47.894Z,33.30
2019-01-05T12:13:44.325Z,31.80
2019-01-05T12:17:41.903Z,30.60
2019-01-05T12:21:21.388Z,30.60
2019-01-05T12:25:15.297Z,31.00
2019-01-05T12:29:10.356Z,31.20
2019-01-05T12:33:08.354Z,31.10
2019-01-05T12:36:56.788Z,31.60
2019-01-05T12:40:52.746Z,31.60
2019-01-05T12:44:48.594Z,31.70
2019-01-05T12:48:54.625Z,32.20
2019-01-05T12:52:49.237Z,31.40
2019-01-05T12:57:01.079Z,30.60
2019-01-05T13:00:50.460Z,30.70
2019-01-05T13:04:44.317Z,30.70
2019-01-05T13:09:02.865Z,30.40
2019-01-05T13:13:04.168Z,31.30
2019-01-05T13:17:13.321Z,31.10
2019-01-05T13:21:09.371Z,30.70
2019-01-05T13:24:46.271Z,31.40
2019-01-05T13:28:31.204Z,31.20
2019-01-05T13:32:57.012Z,31.70
2019-01-05T13:37:10.960Z,32.20
2019-01-05T13:41:15.002Z,31.60
2019-01-05T13:45:36.637Z,31.50
2019-01-05T13:49:25.118Z,30.90
2019-01-05T13:53:15.248Z,31.40
2019-01-05T13:56:20.855Z,31.20
2019-01-05T13:59:08.501Z,31.60
2019-01-05T14:01:58.838Z,32.10
2019-01-05T14:04:47.385Z,31.60
2019-01-05T14:07:33.702Z,31.50
2019-01-05T14:10:16.266Z,32.30
2019-01-05T14:13:09.310Z,31.90
2019-01-05T14:16:02.851Z,32.20
2019-01-05T14:19:07.913Z,32.50
2019-01-05T14:22:08.520Z,32.80
2019-01-05T14:24:55.992Z,33.50
2019-01-05T14:27:55.067Z,33.00
2019-01-05T14:30:56.956Z,33.00
2019-01-05T14:33:54.038Z,33.30
2019-01-05T14:36:41.770Z,33.70
2019-01-05T14:39:29.033Z,33.80
2019-01-05T14:42:29.067Z,34.60
2019-01-05T14:45:16.628Z,35.30
2019-01-05T14:48:22.498Z,34.60
2019-01-05T14:51:12.377Z,35.30
2019-01-05T14:54:00.806Z,34.70
2019-01-05T14:57:03.375Z,34.70
2019-01-05T14:59:51.119Z,35.60
2019-01-05T15:02:40.119Z,34.20
2019-01-05T15:05:47.630Z,34.10
2019-01-05T15:08:38.598Z,34.80
2019-01-05T15:11:33.707Z,34.50
2019-01-05T15:14:25.293Z,35.00
2019-01-05T15:17:14.357Z,35.60
2019-01-05T15:20:15.979Z,37.80
2019-01-05T15:23:04.798Z,37.50
2019-01-05T15:25:53.740Z,37.50
2019-01-05T15:28:51.410Z,37.10
2019-01-05T15:31:50.378Z,38.90
2019-01-05T15:34:58.488Z,38.50
2019-01-05T15:37:46.999Z,38.10
2019-01-05T15:40:48.438Z,37.90
2019-01-05T15:43:37.318Z,38.30
2019-01-05T15:46:26.140Z,37.80
2019-01-05T15:49:15.796Z,38.40
2019-01-05T15:52:20.350Z,39.20
2019-01-05T15:55:08.616Z,39.10
2019-01-05T15:58:02.794Z,39.10
2019-01-05T16:00:52.006Z,39.20
2019-01-05T16:03:51.740Z,38.60
2019-01-05T16:06:50.592Z,39.30
2019-01-05T16:09:41.659Z,38.90
2019-01-05T16:12:30.826Z,39.80
2019-01-05T16:15:31.396Z,39.90
2019-01-05T16:18:18.904Z,40.60
2019-01-05T16:21:07.216Z,40.60
2019-01-05T16:23:58.488Z,40.80
2019-01-05T16:26:58.878Z,41.10
2019-01-05T16:29:59.600Z,41.30
2019-01-05T16:32:48.346Z,42.20
2019-01-05T16:35:36.548Z,41.50
2019-01-05T16:38:24.269Z,41.40
2019-01-05T16:41:19.969Z,41.70
2019-01-05T16:44:07.931Z,42.20
2019-01-05T16:46:56.175Z,43.00
2019-01-05T16:49:54.021Z,42.80
2019-01-05T16:52:58.191Z,41.60
2019-01-05T16:55:47.223Z,42.40
2019-01-05T16:58:39.284Z,43.30
2019-01-05T17:01:28.685Z,41.40
2019-01-05T17:04:20.724Z,39.90
2019-01-05T17:07:13.648Z,39.30
2019-01-05T17:10:09.329Z,39.70
2019-01-05T17:12:58.833Z,39.60
2019-01-05T17:15:50.738Z,41.00
2019-01-05T17:18:45.433Z,40.90
2019-01-05T17:21:32.696Z,40.80
2019-01-05T17:24:40.221Z,41.30
2019-01-05T17:27:28.520Z,42.10
2019-01-05T17:30:17.796Z,42.40
2019-01-05T17:33:26.648Z,42.90
2019-01-05T17:36:16.119Z,42.90
2019-01-05T17:39:19.636Z,44.40
2019-01-05T17:42:06.668Z,45.20
2019-01-05T17:44:47.494Z,45.10
2019-01-05T17:47:37.195Z,45.70
2019-01-05T17:50:28.334Z,46.50
2019-01-05T17:53:30.791Z,45.70
2019-01-05T17:56:23.367Z,45.90
2019-01-05T17:59:15.122Z,46.10
2019-01-05T18:02:20.056Z,45.90
2019-01-05T18:05:08.282Z,46.50
2019-01-05T18:08:06.500Z,46.30
2019-01-05T18:11:02.679Z,46.90
2019-01-05T18:13:54.496Z,47.00
2019-01-05T18:16:48.769Z,47.40
2019-01-05T18:19:44.629Z,47.70
2019-01-05T18:22:43.588Z,48.10
2019-01-05T18:25:36.937Z,49.30
2019-01-05T18:28:25.482Z,49.40
2019-01-05T18:31:26.535Z,50.00
2019-01-05T18:34:15.532Z,49.30
2019-01-05T18:37:05.719Z,48.70
2019-01-05T18:39:54.490Z,47.50
2019-01-05T18:42:42.308Z,48.80
2019-01-05T18:45:46.991Z,47.40
2019-01-05T18:48:39.081Z,46.50
2019-01-05T18:51:49.224Z,46.70
2019-01-05T18:54:53.661Z,46.40
2019-01-05T18:57:52.357Z,46.90
2019-01-05T19:00:57.723Z,45.30
2019-01-05T19:03:48.443Z,46.30
2019-01-05T19:06:40.974Z,47.30
2019-01-05T19:09:33.221Z,47.40
2019-01-05T19:12:22.056Z,48.60
2019-01-05T19:15:10.434Z,51.00
2019-01-05T19:17:55.115Z,51.30
2019-01-05T19:20:54.064Z,52.10
2019-01-05T19:23:58.726Z,52.50
2019-01-05T19:26:55.554Z,54.20
2019-01-05T19:29:44.816Z,56.00
2019-01-05T19:32:38.209Z,56.00
2019-01-05T19:35:37.072Z,55.20
2019-01-05T19:38:27.675Z,55.70
2019-01-05T19:41:21.734Z,56.60
2019-01-05T19:44:16.696Z,56.70
2019-01-05T19:47:04.930Z,56.70
2019-01-05T19:49:55.021Z,56.70
2019-01-05T19:52:43.360Z,56.70
2019-01-05T19:55:31.793Z,56.20
2019-01-05T19:58:21.014Z,56.40
2019-01-05T20:01:15.618Z,55.30
2019-01-05T20:04:04.965Z,54.60
2019-01-05T20:07:04.231Z,51.90
2019-01-05T20:10:05.438Z,50.50
2019-01-05T20:13:13.989Z,49.10
2019-01-05T20:16:14.676Z,50.40
2019-01-05T20:19:10.212Z,49.60
2019-01-05T20:22:06.361Z,49.50
2019-01-05T20:24:56.204Z,50.40
2019-01-05T20:27:49.975Z,48.60
2019-01-05T20:30:38.760Z,48.80
2019-01-05T20:33:33.196Z,49.40
2019-01-05T20:36:34.387Z,48.30
2019-01-05T20:39:18.924Z,49.30
2019-01-05T20:42:06.654Z,52.40
2019-01-05T20:44:58.539Z,52.80
2019-01-05T20:47:47.710Z,53.80
2019-01-05T20:50:51.539Z,55.40
2019-01-05T20:53:55.273Z,53.20
2019-01-05T20:56:54.004Z,54.60
2019-01-05T20:59:59.600Z,56.40
2019-01-05T21:02:51.204Z,58.90
2019-01-05T21:05:40.079Z,60.80
2019-01-05T21:08:28.953Z,62.00
2019-01-05T21:11:16.589Z,64.20
2019-01-05T21:14:08.409Z,64.50
2019-01-05T21:16:57.970Z,65.50
2019-01-05T21:19:47.166Z,65.20
2019-01-05T21:22:36.021Z,64.90
2019-01-05T21:25:24.276Z,63.70
2019-01-05T21:28:28.488Z,62.10
2019-01-05T21:31:16.126Z,64.30
2019-01-05T21:34:22.553Z,64.90
2019-01-05T21:37:20.501Z,60.50
2019-01-05T21:40:28.696Z,60.60
2019-01-05T21:43:17.555Z,57.40
2019-01-05T21:46:14.794Z,57.80
2019-01-05T21:49:01.359Z,61.20
2019-01-05T21:52:02.984Z,62.00
2019-01-05T21:54:51.680Z,64.00
2019-01-05T21:57:41.131Z,64.60
2019-01-05T22:00:30.547Z,66.60
2019-01-05T22:03:29.264Z,65.90
2019-01-05T22:06:28.539Z,66.50
2019-01-05T22:09:33.553Z,67.30
2019-01-05T22:12:26.532Z,67.30
2019-01-05T22:15:13.812Z,67.90
2019-01-05T22:18:05.982Z,67.20
2019-01-05T22:21:14.291Z,66.90
2019-01-05T22:24:01.782Z,66.30
2019-01-05T22:26:54.536Z,64.80
2019-01-05T22:29:45.138Z,63.60
2019-01-05T22:32:33.961Z,63.00
2019-01-05T22:35:23.995Z,61.50
2019-01-05T22:38:27.706Z,60.90
2019-01-05T22:41:16.160Z,59.40
2019-01-05T22:44:06.638Z,59.30
2019-01-05T22:46:56.042Z,59.50
2019-01-05T22:49:54.160Z,57.70
2019-01-05T22:52:45.698Z,56.20
2019-01-05T22:55:36.041Z,58.00
2019-01-05T22:58:24.859Z,59.50
2019-01-05T23:01:23.516Z,61.30
2019-01-05T23:04:11.967Z,63.80
2019-01-05T23:07:05.649Z,64.40
2019-01-05T23:09:53.759Z,65.00
2019-01-05T23:12:53.481Z,66.40
2019-01-05T23:15:51.099Z,67.10
2019-01-05T23:18:55.261Z,69.10
2019-01-05T23:21:43.684Z,67.30
2019-01-05T23:24:44.795Z,64.60
2019-01-05T23:27:54.059Z,61.80
2019-01-05T23:30:43.501Z,65.60
2019-01-05T23:33:38.110Z,63.50
2019-01-05T23:36:33.106Z,65.10
2019-01-05T23:39:20.174Z,62.90
2019-01-05T23:42:18.815Z,64.00
2019-01-05T23:45:07.775Z,62.10
2019-01-05T23:47:56.659Z,62.80
2019-01-05T23:50:44.536Z,63.00
2019-01-05T23:53:38.996Z,65.30
2019-01-05T23:56:34.729Z,68.60
2019-01-05T23:59:23.363Z,70.80
